Time;durP1;ratioP1;P1;durP2;ratioP2;P2;SDS_P1;SDS_P2;PMS_P1;PMS_P2;Temp;Humidity;BMP_temperature;BMP_pressure;BME280_temperature;BME280_humidity;BME280_pressure;Samples;Min_cycle;Max_cycle;Signal;HPM_P1;HPM_P2
2022/07/25 00:02:01;;;;;;;15.50;13.90;;;;;;;;;;5039697;28;20481;-82
2022/07/25 00:04:29;;;;;;;14.67;13.27;;;;;;;;;;5043501;28;20507;-82
2022/07/25 00:06:55;;;;;;;16.73;14.32;;;;;;;;;;5045094;28;20428;-81
2022/07/25 00:09:22;;;;;;;15.57;14.07;;;;;;;;;;5047102;28;20794;-81
2022/07/25 00:11:48;;;;;;;18.25;15.15;;;;;;;;;;5047334;28;20429;-81
2022/07/25 00:14:14;;;;;;;15.80;14.20;;;;;;;;;;5043553;28;20432;-82
2022/07/25 00:16:42;;;;;;;15.52;14.07;;;;;;;;;;5045137;28;20429;-81
2022/07/25 00:19:08;;;;;;;15.07;13.68;;;;;;;;;;5044533;28;20432;-82
2022/07/25 00:21:36;;;;;;;15.50;14.10;;;;;;;;;;5043235;28;20433;-81
2022/07/25 00:24:03;;;;;;;15.55;14.15;;;;;;;;;;5042713;28;20437;-81
2022/07/25 00:26:33;;;;;;;20.30;14.30;;;;;;;;;;5041912;28;20427;-81
2022/07/25 00:28:59;;;;;;;16.00;14.40;;;;;;;;;;5044314;28;20514;-81
2022/07/25 00:31:26;;;;;;;16.83;15.23;;;;;;;;;;5043516;28;20806;-82
2022/07/25 00:33:52;;;;;;;17.98;16.27;;;;;;;;;;5045857;28;20429;-82
2022/07/25 00:36:19;;;;;;;16.70;15.20;;;;;;;;;;5028637;28;20460;-81
2022/07/25 00:38:46;;;;;;;17.60;15.90;;;;;;;;;;5026840;28;20429;-81
2022/07/25 00:41:13;;;;;;;16.42;14.93;;;;;;;;;;5047021;28;20445;-81
2022/07/25 00:43:42;;;;;;;16.50;15.10;;;;;;;;;;5042086;28;21378;-82
2022/07/25 00:46:08;;;;;;;17.77;16.10;;;;;;;;;;5025092;28;20426;-81
2022/07/25 00:48:35;;;;;;;16.17;14.68;;;;;;;;;;5050204;28;20421;-81
2022/07/25 00:51:01;;;;;;;15.48;13.98;;;;;;;;;;5027212;28;20436;-81
2022/07/25 00:53:28;;;;;;;16.20;14.70;;;;;;;;;;5047856;28;20429;-82
2022/07/25 00:55:56;;;;;;;16.70;15.10;;;;;;;;;;5045028;28;20930;-81
2022/07/25 00:58:22;;;;;;;17.58;15.85;;;;;;;;;;5049445;28;20432;-81
2022/07/25 01:00:48;;;;;;;17.50;15.90;;;;;;;;;;5047731;28;20430;-81
2022/07/25 01:03:15;;;;;;;15.23;13.82;;;;;;;;;;5048014;28;20445;-81
2022/07/25 01:05:42;;;;;;;15.50;14.10;;;;;;;;;;5048155;28;20926;-81
2022/07/25 01:08:08;;;;;;;16.30;14.80;;;;;;;;;;5050267;28;20432;-81
2022/07/25 01:10:35;;;;;;;15.80;14.40;;;;;;;;;;5050376;28;20953;-81
2022/07/25 01:13:03;;;;;;;15.63;14.13;;;;;;;;;;5047023;28;20437;-82
2022/07/25 01:15:29;;;;;;;15.87;14.47;;;;;;;;;;5044974;28;20437;-82
2022/07/25 01:17:56;;;;;;;15.90;14.40;;;;;;;;;;5047708;28;20429;-81
2022/07/25 01:20:24;;;;;;;16.83;15.32;;;;;;;;;;5048961;28;20421;-81
2022/07/25 01:22:51;;;;;;;17.35;15.65;;;;;;;;;;5048176;28;20433;-82
2022/07/25 01:25:18;;;;;;;17.05;15.55;;;;;;;;;;5045723;28;20824;-81
2022/07/25 01:27:44;;;;;;;16.30;14.60;;;;;;;;;;5023786;28;20813;-81
2022/07/25 01:30:31;;;;;;;16.75;15.05;;;;;;;;;;5050271;28;20831;-81
2022/07/25 01:32:58;;;;;;;16.60;15.00;;;;;;;;;;5049418;28;20421;-82
2022/07/25 01:35:25;;;;;;;16.92;15.23;;;;;;;;;;5047468;28;20439;-81
2022/07/25 01:37:52;;;;;;;15.70;14.30;;;;;;;;;;5046320;28;20964;-81
2022/07/25 01:40:19;;;;;;;15.65;14.07;;;;;;;;;;5049631;28;20446;-81
2022/07/25 01:42:45;;;;;;;17.10;15.40;;;;;;;;;;5050058;28;20424;-81
2022/07/25 01:45:13;;;;;;;16.53;15.13;;;;;;;;;;5032070;28;20942;-81
2022/07/25 01:47:39;;;;;;;16.83;15.27;;;;;;;;;;5047132;28;20949;-81
2022/07/25 01:50:06;;;;;;;15.65;14.25;;;;;;;;;;5047520;28;20804;-81
2022/07/25 01:52:34;;;;;;;17.17;15.57;;;;;;;;;;5044941;28;20432;-81
2022/07/25 01:55:00;;;;;;;16.13;14.63;;;;;;;;;;5047048;28;20429;-81
2022/07/25 01:57:26;;;;;;;17.67;15.10;;;;;;;;;;5046316;28;20409;-81
2022/07/25 01:59:53;;;;;;;16.13;14.70;;;;;;;;;;5047632;28;20440;-81
2022/07/25 02:02:19;;;;;;;15.73;14.32;;;;;;;;;;5047543;28;20410;-81
2022/07/25 02:04:45;;;;;;;16.85;15.15;;;;;;;;;;5046914;28;20429;-81
2022/07/25 02:07:12;;;;;;;16.20;14.57;;;;;;;;;;5047480;28;20441;-81
2022/07/25 02:09:40;;;;;;;16.17;14.68;;;;;;;;;;5047359;28;20436;-80
2022/07/25 02:12:07;;;;;;;16.07;14.53;;;;;;;;;;5050531;28;20917;-81
2022/07/25 02:14:34;;;;;;;15.10;13.80;;;;;;;;;;5034020;28;20417;-81
2022/07/25 02:17:00;;;;;;;16.85;15.25;;;;;;;;;;5047386;28;20965;-81
2022/07/25 02:19:26;;;;;;;16.13;14.53;;;;;;;;;;5048334;28;20440;-81
2022/07/25 02:21:54;;;;;;;15.68;14.30;;;;;;;;;;5029427;28;20425;-81
2022/07/25 02:24:21;;;;;;;18.15;14.50;;;;;;;;;;5046611;28;20425;-81
2022/07/25 02:26:48;;;;;;;15.77;14.23;;;;;;;;;;5047080;28;20444;-81
2022/07/25 02:29:15;;;;;;;16.02;14.43;;;;;;;;;;5048265;28;20947;-81
2022/07/25 02:31:41;;;;;;;16.20;14.80;;;;;;;;;;5031902;28;20433;-81
2022/07/25 02:34:08;;;;;;;16.88;15.45;;;;;;;;;;5027259;28;20493;-81
2022/07/25 02:36:34;;;;;;;17.90;16.13;;;;;;;;;;5049621;28;20425;-81
2022/07/25 02:39:01;;;;;;;16.70;15.20;;;;;;;;;;5046566;28;20452;-81
2022/07/25 02:41:27;;;;;;;16.25;14.65;;;;;;;;;;5030484;28;20441;-81
2022/07/25 02:43:55;;;;;;;16.15;14.48;;;;;;;;;;5045347;28;20452;-81
2022/07/25 02:46:21;;;;;;;16.52;14.82;;;;;;;;;;5048919;28;20461;-82
2022/07/25 02:48:48;;;;;;;18.02;16.33;;;;;;;;;;5047423;28;20429;-81
2022/07/25 02:51:14;;;;;;;16.30;14.70;;;;;;;;;;5047954;28;20429;-81
2022/07/25 02:53:40;;;;;;;17.13;14.75;;;;;;;;;;5046671;28;20428;-81
2022/07/25 02:56:07;;;;;;;15.13;13.73;;;;;;;;;;5049235;28;20965;-81
2022/07/25 02:58:33;;;;;;;15.85;14.25;;;;;;;;;;5028850;28;20941;-81
2022/07/25 03:01:01;;;;;;;15.80;14.30;;;;;;;;;;5046285;28;20439;-81
2022/07/25 03:03:28;;;;;;;15.65;14.15;;;;;;;;;;5045649;28;20425;-81
2022/07/25 03:05:54;;;;;;;16.20;14.57;;;;;;;;;;5044728;28;20790;-81
2022/07/25 03:08:21;;;;;;;15.65;14.15;;;;;;;;;;5027758;28;20429;-81
2022/07/25 03:10:47;;;;;;;16.45;14.93;;;;;;;;;;5029759;28;20429;-81
2022/07/25 03:13:13;;;;;;;16.38;12.88;;;;;;;;;;5047563;28;20429;-81
2022/07/25 03:15:40;;;;;;;16.95;15.27;;;;;;;;;;5048609;28;20444;-81
2022/07/25 03:18:08;;;;;;;14.63;13.18;;;;;;;;;;5045544;28;20510;-82
2022/07/25 03:20:34;;;;;;;17.10;14.35;;;;;;;;;;5044348;28;20440;-81
2022/07/25 03:23:00;;;;;;;16.50;14.48;;;;;;;;;;5047342;28;20433;-81
2022/07/25 03:25:27;;;;;;;15.38;13.82;;;;;;;;;;5047127;28;20441;-81
2022/07/25 03:27:54;;;;;;;15.43;13.93;;;;;;;;;;5048876;28;20423;-81
2022/07/25 03:30:21;;;;;;;14.90;13.40;;;;;;;;;;5045329;28;20543;-81
2022/07/25 03:32:48;;;;;;;14.55;13.10;;;;;;;;;;5046241;28;20429;-80
2022/07/25 03:35:15;;;;;;;15.80;14.20;;;;;;;;;;5043546;28;20922;-82
2022/07/25 03:37:42;;;;;;;20.27;13.65;;;;;;;;;;5045418;28;20425;-81
2022/07/25 03:40:09;;;;;;;14.43;12.93;;;;;;;;;;5044927;28;20442;-81
2022/07/25 03:42:35;;;;;;;14.45;12.63;;;;;;;;;;5048356;28;20579;-81
2022/07/25 03:45:02;;;;;;;14.20;12.82;;;;;;;;;;5048274;28;20447;-81
2022/07/25 03:47:28;;;;;;;14.25;12.80;;;;;;;;;;5046010;28;20440;-81
2022/07/25 03:49:55;;;;;;;12.90;11.40;;;;;;;;;;5043649;28;20429;-81
2022/07/25 03:52:22;;;;;;;13.75;11.88;;;;;;;;;;5045747;28;20417;-81
2022/07/25 03:54:49;;;;;;;13.13;11.82;;;;;;;;;;5044606;28;20466;-81
2022/07/25 03:57:16;;;;;;;13.20;11.80;;;;;;;;;;5046180;28;20455;-81
2022/07/25 03:59:42;;;;;;;13.40;11.30;;;;;;;;;;5046142;28;20436;-81
2022/07/25 04:02:09;;;;;;;12.95;11.65;;;;;;;;;;5028385;28;20654;-82
2022/07/25 04:04:35;;;;;;;12.02;10.82;;;;;;;;;;5042261;28;20433;-81
2022/07/25 04:07:02;;;;;;;12.10;10.90;;;;;;;;;;5042303;28;20802;-81
2022/07/25 04:09:30;;;;;;;14.88;10.90;;;;;;;;;;5044361;28;20431;-81
2022/07/25 04:11:56;;;;;;;12.93;11.43;;;;;;;;;;5044513;28;20433;-81
2022/07/25 04:14:22;;;;;;;12.65;10.40;;;;;;;;;;5048935;28;20417;-81
2022/07/25 04:16:49;;;;;;;12.85;11.35;;;;;;;;;;5049195;28;20417;-81
2022/07/25 04:19:15;;;;;;;11.85;10.60;;;;;;;;;;5041689;28;20428;-81
2022/07/25 04:21:41;;;;;;;12.73;11.35;;;;;;;;;;5044046;28;20437;-81
2022/07/25 04:24:08;;;;;;;13.87;11.53;;;;;;;;;;5044190;28;20425;-81
2022/07/25 04:26:36;;;;;;;11.32;10.18;;;;;;;;;;5046789;28;20429;-81
2022/07/25 04:29:02;;;;;;;12.80;11.55;;;;;;;;;;5046724;28;20447;-81
2022/07/25 04:31:29;;;;;;;12.57;11.05;;;;;;;;;;5023919;28;20428;-81
2022/07/25 04:33:56;;;;;;;12.35;11.15;;;;;;;;;;5024985;28;20985;-81
2022/07/25 04:36:22;;;;;;;13.30;10.90;;;;;;;;;;5042874;28;20433;-81
2022/07/25 04:38:49;;;;;;;12.27;10.97;;;;;;;;;;5045738;28;20430;-81
2022/07/25 04:41:15;;;;;;;16.40;12.48;;;;;;;;;;5047952;28;20429;-81
2022/07/25 04:43:43;;;;;;;12.82;11.23;;;;;;;;;;5046218;28;20427;-82
2022/07/25 04:46:10;;;;;;;13.13;11.82;;;;;;;;;;5047071;28;20437;-81
2022/07/25 04:48:37;;;;;;;12.00;10.90;;;;;;;;;;5048726;28;20424;-81
2022/07/25 04:51:03;;;;;;;13.77;11.13;;;;;;;;;;5048453;28;20425;-81
2022/07/25 04:53:29;;;;;;;12.48;10.45;;;;;;;;;;5044124;28;20436;-82
2022/07/25 04:55:56;;;;;;;12.20;11.00;;;;;;;;;;5044924;28;20429;-81
2022/07/25 04:58:22;;;;;;;13.30;12.00;;;;;;;;;;5047496;28;20418;-81
2022/07/25 05:00:50;;;;;;;13.02;11.73;;;;;;;;;;5045642;28;20440;-81
2022/07/25 05:03:16;;;;;;;14.07;12.57;;;;;;;;;;5049483;28;20478;-81
2022/07/25 05:05:43;;;;;;;12.90;11.70;;;;;;;;;;5047235;28;20436;-82
2022/07/25 05:08:09;;;;;;;11.57;10.57;;;;;;;;;;5043724;28;20427;-81
2022/07/25 05:10:35;;;;;;;11.50;10.30;;;;;;;;;;5046502;28;20433;-81
2022/07/25 05:13:02;;;;;;;12.80;11.57;;;;;;;;;;5046648;28;20430;-81
2022/07/25 05:15:28;;;;;;;12.57;11.37;;;;;;;;;;5047302;28;20972;-81
2022/07/25 05:17:56;;;;;;;12.32;10.90;;;;;;;;;;5047413;28;20422;-81
2022/07/25 05:20:24;;;;;;;12.07;10.90;;;;;;;;;;5045453;28;20829;-81
2022/07/25 05:22:50;;;;;;;12.00;10.23;;;;;;;;;;5046474;28;20418;-81
2022/07/25 05:25:17;;;;;;;11.63;10.63;;;;;;;;;;5046948;28;20448;-81
2022/07/25 05:27:43;;;;;;;11.48;10.38;;;;;;;;;;5046346;28;20421;-81
2022/07/25 05:30:11;;;;;;;11.65;10.45;;;;;;;;;;5047456;28;20432;-81
2022/07/25 05:32:37;;;;;;;10.98;9.88;;;;;;;;;;5051435;28;20428;-81
2022/07/25 05:35:06;;;;;;;11.60;10.40;;;;;;;;;;5051387;28;20434;-82
2022/07/25 05:37:33;;;;;;;11.47;10.27;;;;;;;;;;5050665;28;20409;-81
2022/07/25 05:39:59;;;;;;;10.70;9.70;;;;;;;;;;5050748;28;20425;-81
2022/07/25 05:42:26;;;;;;;11.80;10.65;;;;;;;;;;5033770;28;20417;-81
2022/07/25 05:44:52;;;;;;;10.80;9.80;;;;;;;;;;5049245;28;20444;-81
2022/07/25 05:47:18;;;;;;;10.55;9.45;;;;;;;;;;5051575;28;20440;-82
2022/07/25 05:49:45;;;;;;;11.27;9.60;;;;;;;;;;5051986;28;20436;-82
2022/07/25 05:52:13;;;;;;;11.55;10.45;;;;;;;;;;5046192;28;20434;-82
2022/07/25 05:54:39;;;;;;;11.50;10.40;;;;;;;;;;5047865;28;20438;-81
2022/07/25 05:57:05;;;;;;;10.93;10.02;;;;;;;;;;5051046;28;20459;-81
2022/07/25 05:59:32;;;;;;;12.35;10.88;;;;;;;;;;5046260;28;20444;-82
2022/07/25 06:01:58;;;;;;;10.82;9.30;;;;;;;;;;5044123;28;20430;-82
2022/07/25 06:04:24;;;;;;;10.35;9.25;;;;;;;;;;5048867;28;20434;-82
2022/07/25 06:06:51;;;;;;;11.48;9.68;;;;;;;;;;5049255;28;20794;-81
2022/07/25 06:09:20;;;;;;;10.35;9.45;;;;;;;;;;5046943;28;20529;-82
2022/07/25 06:11:46;;;;;;;11.27;9.60;;;;;;;;;;5044252;28;20936;-80
2022/07/25 06:14:13;;;;;;;10.37;9.47;;;;;;;;;;5029177;28;20433;-81
2022/07/25 06:16:40;;;;;;;10.10;9.07;;;;;;;;;;5043651;28;20927;-81
2022/07/25 06:19:06;;;;;;;9.75;8.80;;;;;;;;;;5029432;28;20433;-80
2022/07/25 06:21:33;;;;;;;9.88;8.98;;;;;;;;;;5047900;28;20436;-81
2022/07/25 06:24:00;;;;;;;10.00;9.00;;;;;;;;;;5048805;28;20424;-81
2022/07/25 06:26:29;;;;;;;11.10;9.35;;;;;;;;;;5047764;28;20505;-81
2022/07/25 06:28:55;;;;;;;10.33;9.37;;;;;;;;;;5029499;28;20413;-81
2022/07/25 06:31:22;;;;;;;9.75;8.85;;;;;;;;;;5049551;28;20440;-81
2022/07/25 06:33:49;;;;;;;9.77;8.88;;;;;;;;;;5045467;28;20796;-81
2022/07/25 06:36:16;;;;;;;10.50;9.40;;;;;;;;;;5048366;28;20441;-80
2022/07/25 06:38:42;;;;;;;10.05;9.15;;;;;;;;;;5047442;28;20518;-81
2022/07/25 06:41:13;;;;;;;11.63;10.60;;;;;;;;;;5043842;28;20441;-81
2022/07/25 06:43:41;;;;;;;10.40;9.40;;;;;;;;;;5049396;28;20420;-82
2022/07/25 06:46:07;;;;;;;10.13;9.05;;;;;;;;;;5047952;28;20445;-81
2022/07/25 06:48:34;;;;;;;11.43;9.38;;;;;;;;;;5044738;28;20893;-82
2022/07/25 06:51:00;;;;;;;9.90;8.90;;;;;;;;;;5046930;28;20426;-80
2022/07/25 06:53:27;;;;;;;11.32;9.13;;;;;;;;;;5044037;28;21042;-80
2022/07/25 06:55:53;;;;;;;10.13;9.10;;;;;;;;;;5045836;28;20425;-79
2022/07/25 06:58:20;;;;;;;10.45;9.50;;;;;;;;;;5044875;28;20438;-79
2022/07/25 07:00:47;;;;;;;10.90;9.20;;;;;;;;;;5050535;28;20457;-80
2022/07/25 07:03:14;;;;;;;9.60;8.65;;;;;;;;;;5048490;28;20432;-80
2022/07/25 07:05:40;;;;;;;10.60;9.63;;;;;;;;;;5049313;28;20433;-80
2022/07/25 07:08:07;;;;;;;9.80;8.80;;;;;;;;;;5049882;28;20421;-80
2022/07/25 07:10:33;;;;;;;9.63;8.90;;;;;;;;;;5051615;28;20440;-80
2022/07/25 07:13:04;;;;;;;10.45;9.55;;;;;;;;;;5044879;28;20456;-80
2022/07/25 07:15:30;;;;;;;10.30;9.40;;;;;;;;;;5042716;28;20783;-79
2022/07/25 07:17:58;;;;;;;10.30;9.38;;;;;;;;;;5045000;28;20421;-81
2022/07/25 07:20:24;;;;;;;10.65;9.65;;;;;;;;;;5047372;28;20457;-81
2022/07/25 07:22:50;;;;;;;9.90;8.90;;;;;;;;;;5044660;28;20428;-80
2022/07/25 07:25:18;;;;;;;9.80;8.80;;;;;;;;;;5029833;28;20449;-80
2022/07/25 07:27:44;;;;;;;9.80;8.90;;;;;;;;;;5049652;28;20477;-80
2022/07/25 07:30:13;;;;;;;11.10;10.00;;;;;;;;;;5046158;28;20427;-80
2022/07/25 07:32:39;;;;;;;10.20;9.20;;;;;;;;;;5045806;28;20867;-80
2022/07/25 07:35:08;;;;;;;10.20;9.10;;;;;;;;;;5043771;28;20429;-80
2022/07/25 07:37:35;;;;;;;10.93;9.83;;;;;;;;;;5045513;28;20413;-80
2022/07/25 07:40:01;;;;;;;11.13;9.93;;;;;;;;;;5046056;28;20441;-81
2022/07/25 07:42:27;;;;;;;11.48;9.60;;;;;;;;;;5048709;28;20735;-80
2022/07/25 07:44:53;;;;;;;10.90;9.90;;;;;;;;;;5047007;28;20425;-80
2022/07/25 07:47:21;;;;;;;10.70;9.43;;;;;;;;;;5029654;28;20912;-81
2022/07/25 07:49:47;;;;;;;11.48;9.73;;;;;;;;;;5047500;28;20425;-82
2022/07/25 07:52:15;;;;;;;10.73;9.75;;;;;;;;;;5043070;28;20436;-83
2022/07/25 07:57:25;;;;;;;10.93;9.77;;;;;;;;;;5047174;28;20413;-81
2022/07/25 07:59:52;;;;;;;10.80;9.70;;;;;;;;;;5045827;28;20917;-80
2022/07/25 08:02:18;;;;;;;10.77;9.77;;;;;;;;;;5028090;28;20397;-80
2022/07/25 08:04:44;;;;;;;11.43;10.23;;;;;;;;;;5044590;28;20432;-80
2022/07/25 08:07:11;;;;;;;10.67;9.67;;;;;;;;;;5049014;28;20416;-80
2022/07/25 08:09:38;;;;;;;11.45;10.27;;;;;;;;;;5045890;28;20440;-80
2022/07/25 08:12:05;;;;;;;10.02;9.13;;;;;;;;;;5044272;28;20947;-80
2022/07/25 08:14:31;;;;;;;11.27;10.10;;;;;;;;;;5040371;28;20810;-80
2022/07/25 08:16:58;;;;;;;10.95;9.95;;;;;;;;;;5047999;28;20421;-81
2022/07/25 08:19:24;;;;;;;11.18;9.98;;;;;;;;;;5043857;28;20429;-80
2022/07/25 08:21:50;;;;;;;10.70;9.60;;;;;;;;;;5049024;28;20427;-80
2022/07/25 08:24:17;;;;;;;9.60;8.70;;;;;;;;;;5048449;28;20421;-80
2022/07/25 08:26:45;;;;;;;11.50;9.88;;;;;;;;;;5045684;28;20445;-79
2022/07/25 08:29:11;;;;;;;10.87;9.87;;;;;;;;;;5045206;28;20831;-80
2022/07/25 08:31:37;;;;;;;10.83;9.73;;;;;;;;;;5040161;28;20442;-80
2022/07/25 08:34:05;;;;;;;11.27;9.30;;;;;;;;;;5044777;28;20429;-80
2022/07/25 08:36:32;;;;;;;14.05;10.07;;;;;;;;;;5044122;28;20814;-80
2022/07/25 08:38:58;;;;;;;10.63;9.63;;;;;;;;;;5040647;28;20450;-81
2022/07/25 08:41:25;;;;;;;11.40;10.13;;;;;;;;;;5046878;28;20437;-81
2022/07/25 08:43:53;;;;;;;11.00;9.90;;;;;;;;;;5042584;28;20423;-80
2022/07/25 08:46:19;;;;;;;10.73;9.70;;;;;;;;;;5047819;28;20437;-80
2022/07/25 08:48:46;;;;;;;11.10;10.10;;;;;;;;;;5046135;28;20992;-80
2022/07/25 08:51:12;;;;;;;10.55;9.55;;;;;;;;;;5031003;28;20508;-81
2022/07/25 08:53:39;;;;;;;10.63;9.63;;;;;;;;;;5042743;28;20813;-80
2022/07/25 08:56:07;;;;;;;11.13;10.13;;;;;;;;;;5046732;28;20433;-81
2022/07/25 08:58:33;;;;;;;10.98;9.55;;;;;;;;;;5041399;28;20571;-81
2022/07/25 09:01:01;;;;;;;11.20;10.20;;;;;;;;;;5041263;28;20952;-80
2022/07/25 09:03:28;;;;;;;10.70;9.70;;;;;;;;;;5046488;28;20441;-81
2022/07/25 09:05:54;;;;;;;10.98;10.00;;;;;;;;;;5048832;28;20436;-81
2022/07/25 09:08:20;;;;;;;11.30;10.30;;;;;;;;;;5048745;28;20488;-79
2022/07/25 09:10:49;;;;;;;10.60;9.50;;;;;;;;;;5046438;28;20661;-82
2022/07/25 09:13:16;;;;;;;11.23;10.02;;;;;;;;;;5053342;28;20425;-80
2022/07/25 09:15:44;;;;;;;10.00;8.95;;;;;;;;;;5050962;28;20452;-82
2022/07/25 09:18:13;;;;;;;10.57;9.57;;;;;;;;;;5048448;28;20433;-81
2022/07/25 09:20:40;;;;;;;10.57;9.57;;;;;;;;;;5033880;28;20906;-80
2022/07/25 09:23:07;;;;;;;10.10;9.20;;;;;;;;;;5048674;28;20444;-80
2022/07/25 09:25:33;;;;;;;9.98;9.05;;;;;;;;;;5046436;28;20426;-81
2022/07/25 09:28:10;;;;;;;10.48;9.57;;;;;;;;;;5049021;28;20420;-82
2022/07/25 09:30:36;;;;;;;10.10;9.20;;;;;;;;;;5053199;28;20435;-81
2022/07/25 09:33:03;;;;;;;10.20;9.30;;;;;;;;;;5033491;28;20430;-81
2022/07/25 09:35:32;;;;;;;10.85;9.85;;;;;;;;;;5052403;28;20432;-80
2022/07/25 09:38:06;;;;;;;10.57;9.50;;;;;;;;;;5050825;28;20421;-81
2022/07/25 09:40:33;;;;;;;10.40;9.50;;;;;;;;;;5052512;28;20429;-80
2022/07/25 09:42:59;;;;;;;10.57;9.65;;;;;;;;;;5050024;28;20423;-81
2022/07/25 09:45:26;;;;;;;10.75;9.20;;;;;;;;;;5048390;28;20430;-80
2022/07/25 09:47:53;;;;;;;10.35;9.50;;;;;;;;;;5050910;28;20425;-80
2022/07/25 09:50:21;;;;;;;11.10;10.00;;;;;;;;;;5051418;28;20437;-81
2022/07/25 09:52:49;;;;;;;9.40;8.50;;;;;;;;;;5051968;28;20423;-80
2022/07/25 09:55:16;;;;;;;11.40;9.00;;;;;;;;;;5053893;28;20436;-81
2022/07/25 09:57:43;;;;;;;9.90;9.00;;;;;;;;;;5029644;28;20825;-79
2022/07/25 10:00:11;;;;;;;10.40;9.50;;;;;;;;;;5045441;28;20466;-80
2022/07/25 10:02:40;;;;;;;10.25;9.35;;;;;;;;;;5046689;28;20511;-80
2022/07/25 10:05:11;;;;;;;10.60;9.60;;;;;;;;;;5046667;28;20824;-80
2022/07/25 10:07:38;;;;;;;10.07;9.07;;;;;;;;;;5045675;28;20413;-80
2022/07/25 10:10:07;;;;;;;10.45;9.45;;;;;;;;;;5029796;28;20430;-79
2022/07/25 10:12:33;;;;;;;11.15;9.80;;;;;;;;;;5045442;28;20409;-81
2022/07/25 10:15:04;;;;;;;10.93;9.85;;;;;;;;;;5047591;28;21105;-79
2022/07/25 10:17:31;;;;;;;10.20;9.20;;;;;;;;;;5046108;28;20444;-79
2022/07/25 10:20:00;;;;;;;10.13;9.32;;;;;;;;;;5048217;28;20436;-80
2022/07/25 10:22:42;;;;;;;11.50;9.80;;;;;;;;;;5072112;22;20397;-82
2022/07/25 10:25:14;;;;;;;10.67;9.70;;;;;;;;;;5058672;28;20426;-80
2022/07/25 10:27:47;;;;;;;10.52;9.43;;;;;;;;;;5067551;28;20425;-79
2022/07/25 10:30:23;;;;;;;10.10;9.10;;;;;;;;;;5071721;28;20774;-80
2022/07/25 10:32:50;;;;;;;10.70;9.80;;;;;;;;;;5042907;28;20418;-83
2022/07/25 10:35:17;;;;;;;10.10;9.20;;;;;;;;;;5051947;28;20427;-85
2022/07/25 10:37:45;;;;;;;10.20;9.20;;;;;;;;;;5049924;28;20428;-80
2022/07/25 10:40:25;;;;;;;9.70;8.70;;;;;;;;;;5052735;28;20429;-80
2022/07/25 10:42:55;;;;;;;9.73;8.73;;;;;;;;;;5044965;28;20439;-80
2022/07/25 10:45:25;;;;;;;9.60;8.70;;;;;;;;;;5046920;28;20440;-79
2022/07/25 10:47:54;;;;;;;10.63;9.00;;;;;;;;;;5052128;28;20421;-80
2022/07/25 10:50:21;;;;;;;10.27;9.18;;;;;;;;;;5051608;28;20459;-79
2022/07/25 10:52:57;;;;;;;10.37;9.47;;;;;;;;;;5050272;28;20938;-80
2022/07/25 10:55:23;;;;;;;9.50;8.50;;;;;;;;;;5046741;28;20434;-80
2022/07/25 10:58:00;;;;;;;9.05;8.25;;;;;;;;;;5042598;28;20422;-80
2022/07/25 11:00:27;;;;;;;9.85;8.85;;;;;;;;;;5048776;28;20487;-80
2022/07/25 11:02:55;;;;;;;9.70;8.70;;;;;;;;;;5046767;28;20798;-79
2022/07/25 11:05:21;;;;;;;10.05;9.05;;;;;;;;;;5031091;28;20509;-82
2022/07/25 11:07:51;;;;;;;9.70;8.80;;;;;;;;;;5043203;28;20430;-81
2022/07/25 11:10:24;;;;;;;10.30;9.20;;;;;;;;;;5048186;28;20485;-79
2022/07/25 11:12:50;;;;;;;10.10;8.70;;;;;;;;;;5045800;28;20440;-79
2022/07/25 11:15:21;;;;;;;9.20;8.40;;;;;;;;;;5047501;28;20435;-78
2022/07/25 11:17:49;;;;;;;10.45;9.35;;;;;;;;;;5043426;28;20577;-79
2022/07/25 11:20:16;;;;;;;10.40;9.30;;;;;;;;;;5043928;28;20433;-79
2022/07/25 11:22:42;;;;;;;9.55;8.65;;;;;;;;;;5046677;28;20440;-82
2022/07/25 11:25:10;;;;;;;9.88;8.98;;;;;;;;;;5045244;28;20441;-79
2022/07/25 11:27:37;;;;;;;9.40;8.60;;;;;;;;;;5051949;28;20429;-79
2022/07/25 11:30:07;;;;;;;9.80;9.00;;;;;;;;;;5049501;28;20444;-78
2022/07/25 11:32:40;;;;;;;10.50;9.40;;;;;;;;;;5047547;28;20415;-79
2022/07/25 11:35:07;;;;;;;11.35;9.40;;;;;;;;;;5049540;28;20475;-81
2022/07/25 11:37:35;;;;;;;9.80;8.80;;;;;;;;;;5043838;28;20427;-79
2022/07/25 11:40:04;;;;;;;10.98;9.98;;;;;;;;;;5045539;28;20434;-80
2022/07/25 11:42:39;;;;;;;10.27;9.27;;;;;;;;;;5044643;28;20425;-79
2022/07/25 11:45:15;;;;;;;10.98;9.43;;;;;;;;;;5045216;28;20442;-82
2022/07/25 11:47:43;;;;;;;10.80;9.63;;;;;;;;;;5045065;28;20427;-79
2022/07/25 11:50:13;;;;;;;10.70;9.57;;;;;;;;;;5046896;28;20435;-79
2022/07/25 11:52:42;;;;;;;10.45;9.40;;;;;;;;;;5044609;28;20432;-79
2022/07/25 11:55:09;;;;;;;11.23;9.80;;;;;;;;;;5046634;28;20420;-80
2022/07/25 11:57:37;;;;;;;15.55;10.40;;;;;;;;;;5043169;28;20425;-81
2022/07/25 12:00:05;;;;;;;10.90;9.85;;;;;;;;;;5045728;28;20900;-79
2022/07/25 12:02:33;;;;;;;11.27;10.07;;;;;;;;;;5046641;28;20421;-80
2022/07/25 12:05:02;;;;;;;10.75;9.85;;;;;;;;;;5049901;28;20430;-80
2022/07/25 12:07:38;;;;;;;11.87;10.20;;;;;;;;;;5047273;28;20510;-79
2022/07/25 12:10:05;;;;;;;11.60;10.50;;;;;;;;;;5050282;28;20413;-79
2022/07/25 12:12:41;;;;;;;11.55;10.48;;;;;;;;;;5048980;28;20502;-81
2022/07/25 12:15:09;;;;;;;12.43;11.32;;;;;;;;;;5045717;28;20804;-80
2022/07/25 12:17:35;;;;;;;11.80;10.70;;;;;;;;;;5048016;28;20426;-80
2022/07/25 12:20:03;;;;;;;14.23;11.40;;;;;;;;;;5045042;28;20492;-81
2022/07/25 12:22:30;;;;;;;12.43;11.23;;;;;;;;;;5045175;28;20429;-81
2022/07/25 12:24:56;;;;;;;12.52;11.32;;;;;;;;;;5043924;28;20938;-79
2022/07/25 12:27:22;;;;;;;12.77;11.48;;;;;;;;;;5043964;28;20463;-79
2022/07/25 12:29:49;;;;;;;13.30;11.48;;;;;;;;;;5044079;28;20433;-81
2022/07/25 12:32:15;;;;;;;13.60;12.20;;;;;;;;;;5047918;28;20467;-81
2022/07/25 12:34:42;;;;;;;11.70;10.63;;;;;;;;;;5043825;28;20439;-79
2022/07/25 12:37:10;;;;;;;13.98;12.57;;;;;;;;;;5041399;28;20453;-79
2022/07/25 12:39:36;;;;;;;13.98;12.57;;;;;;;;;;5044743;28;20433;-83
2022/07/25 12:42:02;;;;;;;14.70;13.40;;;;;;;;;;5046548;28;20437;-79
2022/07/25 12:44:29;;;;;;;16.13;13.47;;;;;;;;;;5049207;28;21053;-80
2022/07/25 12:46:55;;;;;;;15.27;13.88;;;;;;;;;;5052552;28;20783;-79
2022/07/25 12:49:21;;;;;;;16.13;14.52;;;;;;;;;;5048976;28;20430;-79
2022/07/25 12:51:48;;;;;;;17.50;15.70;;;;;;;;;;5048098;28;20427;-79
2022/07/25 12:54:16;;;;;;;17.50;15.80;;;;;;;;;;5047607;28;20411;-81
2022/07/25 12:56:42;;;;;;;18.20;16.30;;;;;;;;;;5045592;28;20490;-85
2022/07/25 12:59:08;;;;;;;18.10;16.20;;;;;;;;;;5050395;28;20431;-82
2022/07/25 13:01:35;;;;;;;17.90;16.20;;;;;;;;;;5050943;28;20430;-82
2022/07/25 13:04:01;;;;;;;18.70;16.70;;;;;;;;;;5047070;28;21381;-80
2022/07/25 13:06:27;;;;;;;17.65;16.05;;;;;;;;;;5048825;28;20431;-79
2022/07/25 13:08:53;;;;;;;17.00;15.30;;;;;;;;;;5053441;28;20433;-81
2022/07/25 13:11:21;;;;;;;17.20;15.50;;;;;;;;;;5055257;28;20541;-81
2022/07/25 13:13:47;;;;;;;17.70;16.10;;;;;;;;;;5054790;28;20807;-83
2022/07/25 13:16:14;;;;;;;14.97;13.67;;;;;;;;;;5053089;28;20437;-79
2022/07/25 13:18:40;;;;;;;15.20;11.52;;;;;;;;;;5052795;28;20852;-79
2022/07/25 13:21:06;;;;;;;11.40;10.20;;;;;;;;;;5049247;28;20457;-82
2022/07/25 13:23:33;;;;;;;9.65;8.75;;;;;;;;;;5056037;28;20418;-80
2022/07/25 13:26:00;;;;;;;10.40;8.98;;;;;;;;;;5058757;28;20425;-81
2022/07/25 13:28:27;;;;;;;10.60;8.27;;;;;;;;;;5051423;28;20466;-80
2022/07/25 13:30:54;;;;;;;8.77;8.07;;;;;;;;;;5050328;28;20430;-81
2022/07/25 13:33:20;;;;;;;10.10;7.82;;;;;;;;;;5047170;28;20421;-80
2022/07/25 13:35:47;;;;;;;8.05;7.38;;;;;;;;;;5049477;28;20434;-80
2022/07/25 13:38:13;;;;;;;8.15;7.00;;;;;;;;;;5047363;28;20481;-78
2022/07/25 13:40:41;;;;;;;7.10;6.40;;;;;;;;;;5051168;28;20448;-82
2022/07/25 13:43:07;;;;;;;7.90;7.10;;;;;;;;;;5053790;28;20835;-83
2022/07/25 13:45:35;;;;;;;8.40;7.30;;;;;;;;;;5033355;28;20425;-80
2022/07/25 13:48:01;;;;;;;7.70;7.00;;;;;;;;;;5048827;28;20867;-80
2022/07/25 13:50:28;;;;;;;7.10;6.40;;;;;;;;;;5048678;28;20485;-79
2022/07/25 13:52:56;;;;;;;6.60;6.00;;;;;;;;;;5051048;28;20429;-81
2022/07/25 13:55:22;;;;;;;7.80;6.55;;;;;;;;;;5049716;28;20439;-81
2022/07/25 13:57:48;;;;;;;7.40;6.70;;;;;;;;;;5050373;28;20429;-80
2022/07/25 14:00:15;;;;;;;7.70;6.90;;;;;;;;;;5047679;28;20774;-80
2022/07/25 14:02:43;;;;;;;8.85;7.70;;;;;;;;;;5046392;28;20425;-80
2022/07/25 14:05:11;;;;;;;8.85;7.95;;;;;;;;;;5044230;28;20437;-79
2022/07/25 14:07:38;;;;;;;8.70;7.45;;;;;;;;;;5047342;28;20424;-79
2022/07/25 14:10:06;;;;;;;9.73;8.60;;;;;;;;;;5046961;28;20939;-81
2022/07/25 14:12:33;;;;;;;8.85;7.85;;;;;;;;;;5044897;28;20931;-81
2022/07/25 14:14:59;;;;;;;11.63;8.60;;;;;;;;;;5046239;28;20425;-80
2022/07/25 14:17:27;;;;;;;10.37;8.10;;;;;;;;;;5048690;28;20413;-80
2022/07/25 14:19:55;;;;;;;11.27;9.50;;;;;;;;;;5049438;28;20436;-79
2022/07/25 14:22:21;;;;;;;10.65;9.57;;;;;;;;;;5051593;28;20434;-80
2022/07/25 14:24:48;;;;;;;12.55;9.73;;;;;;;;;;5050135;28;20431;-79
2022/07/25 14:27:14;;;;;;;10.88;9.32;;;;;;;;;;5049172;28;20437;-80